createdAt,value
2019-05-03T00:02:28.608Z,79.21
2019-05-03T00:05:26.664Z,79.95
2019-05-03T00:08:04.084Z,79.86
2019-05-03T00:10:36.476Z,79.01
2019-05-03T00:13:08.442Z,80.57
2019-05-03T00:16:04.375Z,81.25
2019-05-03T00:18:35.675Z,80.44
2019-05-03T00:21:06.785Z,80.40
2019-05-03T00:23:37.923Z,81.49
2019-05-03T00:26:08.989Z,80.51
2019-05-03T00:28:40.009Z,81.32
2019-05-03T00:31:12.483Z,80.66
2019-05-03T00:33:45.725Z,81.01
2019-05-03T00:36:32.812Z,80.75
2019-05-03T00:39:21.604Z,81.17
2019-05-03T00:41:52.378Z,80.82
2019-05-03T00:44:23.438Z,79.70
2019-05-03T00:46:54.489Z,80.99
2019-05-03T00:49:25.554Z,81.32
2019-05-03T00:51:56.536Z,81.99
2019-05-03T00:54:27.517Z,80.99
2019-05-03T00:56:58.827Z,81.42
2019-05-03T00:59:29.865Z,81.89
2019-05-03T01:02:02.663Z,81.91
2019-05-03T01:04:33.704Z,82.48
2019-05-03T01:07:04.875Z,81.71
2019-05-03T01:09:35.996Z,81.13
2019-05-03T01:12:07.046Z,81.00
2019-05-03T01:14:42.160Z,82.11
2019-05-03T01:17:13.420Z,81.49
2019-05-03T01:19:44.562Z,81.20
2019-05-03T01:22:16.705Z,81.93
2019-05-03T01:24:47.677Z,81.22
2019-05-03T01:27:18.656Z,81.67
2019-05-03T01:29:51.798Z,81.22
2019-05-03T01:32:22.470Z,80.58
2019-05-03T01:34:53.517Z,81.80
2019-05-03T01:37:24.481Z,83.09
2019-05-03T01:39:55.467Z,82.04
2019-05-03T01:42:26.436Z,82.25
2019-05-03T01:44:58.598Z,82.38
2019-05-03T01:47:52.643Z,82.80
2019-05-03T01:50:32.647Z,82.14
2019-05-03T01:53:04.733Z,82.32
2019-05-03T01:55:53.811Z,81.67
2019-05-03T01:58:25.397Z,81.94
2019-05-03T02:01:04.331Z,82.09
2019-05-03T02:03:41.948Z,82.28
2019-05-03T02:06:13.055Z,81.99
2019-05-03T02:08:44.027Z,81.00
2019-05-03T02:11:15.071Z,81.77
2019-05-03T02:13:46.025Z,82.36
2019-05-03T02:16:17.101Z,82.84
2019-05-03T02:18:49.157Z,82.70
2019-05-03T02:21:21.632Z,82.80
2019-05-03T02:23:52.922Z,82.72
2019-05-03T02:26:23.951Z,82.20
2019-05-03T02:28:54.949Z,82.47
2019-05-03T02:31:26.005Z,82.52
2019-05-03T02:33:56.998Z,81.83
2019-05-03T02:36:27.961Z,82.42
2019-05-03T02:38:58.934Z,81.50
2019-05-03T02:41:30.076Z,81.70
2019-05-03T02:44:01.024Z,82.95
2019-05-03T02:46:45.462Z,83.42
2019-05-03T02:49:35.061Z,82.91
2019-05-03T02:52:06.624Z,82.12
2019-05-03T02:54:38.878Z,82.51
2019-05-03T02:57:09.923Z,82.80
2019-05-03T02:59:41.043Z,82.69
2019-05-03T03:02:15.072Z,82.17
2019-05-03T03:04:46.324Z,81.15
2019-05-03T03:07:17.749Z,82.15
2019-05-03T03:09:50.711Z,81.90
2019-05-03T03:12:25.759Z,81.12
2019-05-03T03:15:00.357Z,81.97
2019-05-03T03:17:36.508Z,82.38
2019-05-03T03:20:09.038Z,81.91
2019-05-03T03:22:45.646Z,81.18
2019-05-03T03:25:25.821Z,79.90
2019-05-03T03:28:02.277Z,81.46
2019-05-03T03:31:22.369Z,81.51
2019-05-03T03:33:58.655Z,82.54
2019-05-03T03:36:43.634Z,81.24
2019-05-03T03:39:00.357Z,80.91
2019-05-03T03:41:35.237Z,81.28
2019-05-03T03:44:06.986Z,80.75
2019-05-03T03:46:38.672Z,80.95
2019-05-03T03:49:09.991Z,81.81
2019-05-03T03:51:41.927Z,81.54
2019-05-03T03:54:17.995Z,80.29
2019-05-03T03:57:03.250Z,81.49
2019-05-03T03:59:27.926Z,81.02
2019-05-03T04:01:58.994Z,81.49
2019-05-03T04:04:30.846Z,82.31
2019-05-03T04:07:02.061Z,82.48
2019-05-03T04:09:36.524Z,82.35
2019-05-03T04:12:07.499Z,81.75
2019-05-03T04:14:45.939Z,82.93
2019-05-03T04:17:45.650Z,81.96
2019-05-03T04:20:19.959Z,82.35
2019-05-03T04:22:51.282Z,83.01
2019-05-03T04:25:25.850Z,83.12
2019-05-03T04:27:56.248Z,82.68
2019-05-03T04:30:27.359Z,83.58
2019-05-03T04:32:59.303Z,82.99
2019-05-03T04:35:30.277Z,83.95
2019-05-03T04:38:01.339Z,83.07
2019-05-03T04:40:32.409Z,82.55
2019-05-03T04:43:05.777Z,84.46
2019-05-03T04:45:36.820Z,84.17
2019-05-03T04:48:08.322Z,83.92
2019-05-03T04:50:39.313Z,84.29
2019-05-03T04:53:10.292Z,84.00
2019-05-03T04:55:41.420Z,82.23
2019-05-03T04:58:12.385Z,82.59
2019-05-03T05:00:46.301Z,83.08
2019-05-03T05:03:16.135Z,82.26
2019-05-03T05:05:47.150Z,82.06
2019-05-03T05:08:18.152Z,81.83
2019-05-03T05:10:49.147Z,82.46
2019-05-03T05:13:20.174Z,81.40
2019-05-03T05:15:51.212Z,81.61
2019-05-03T05:18:35.335Z,81.44
2019-05-03T05:21:17.359Z,81.90
2019-05-03T05:24:02.297Z,81.22
2019-05-03T05:26:58.298Z,82.01
2019-05-03T05:29:31.397Z,81.86
2019-05-03T05:32:02.460Z,82.67
2019-05-03T05:34:34.955Z,82.46
2019-05-03T05:37:06.081Z,82.18
2019-05-03T05:39:37.311Z,82.44
2019-05-03T05:42:08.418Z,81.98
2019-05-03T05:44:39.501Z,82.18
2019-05-03T05:47:38.705Z,82.27
2019-05-03T05:50:28.934Z,82.36
2019-05-03T05:53:00.013Z,82.45
2019-05-03T05:55:55.298Z,82.60
2019-05-03T05:58:31.016Z,82.54
2019-05-03T06:01:06.443Z,82.25
2019-05-03T06:03:37.436Z,82.27
2019-05-03T06:06:10.758Z,82.58
2019-05-03T06:09:00.706Z,83.67
2019-05-03T06:11:47.479Z,82.77
2019-05-03T06:14:24.404Z,82.79
2019-05-03T06:17:05.351Z,83.32
2019-05-03T06:19:49.618Z,83.89
2019-05-03T06:22:34.574Z,82.92
2019-05-03T06:25:19.342Z,83.04
2019-05-03T06:27:51.300Z,82.70
2019-05-03T06:30:35.155Z,82.44
2019-05-03T06:33:06.212Z,82.83
2019-05-03T06:35:37.220Z,81.12
2019-05-03T06:38:08.247Z,81.20
2019-05-03T06:40:39.379Z,81.83
2019-05-03T07:15:45.770Z,83.95
2019-05-03T07:18:16.800Z,81.50
2019-05-03T07:20:56.532Z,80.85
2019-05-03T07:23:26.138Z,81.42
2019-05-03T07:25:57.238Z,81.10
2019-05-03T07:28:28.379Z,80.59
2019-05-03T07:30:59.413Z,81.15
2019-05-03T07:33:34.519Z,81.74
2019-05-03T07:36:05.644Z,81.26
2019-05-03T07:38:36.943Z,82.29
2019-05-03T07:41:08.052Z,81.95
2019-05-03T07:43:39.041Z,82.09
2019-05-03T07:46:10.086Z,83.75
2019-05-03T07:48:41.136Z,82.98
2019-05-03T07:51:14.465Z,82.71
2019-05-03T07:53:45.757Z,81.89
2019-05-03T07:56:18.098Z,81.58
2019-05-03T07:58:59.856Z,81.71
2019-05-03T08:01:35.625Z,81.74
2019-05-03T08:04:08.487Z,81.45
2019-05-03T08:06:39.520Z,82.46
2019-05-03T08:09:11.065Z,81.63
2019-05-03T08:11:42.092Z,81.47
2019-05-03T08:14:16.119Z,80.82
2019-05-03T08:16:46.182Z,80.42
2019-05-03T08:19:17.787Z,79.42
2019-05-03T08:21:49.003Z,79.94
2019-05-03T08:24:19.975Z,80.82
2019-05-03T08:26:51.038Z,80.03
2019-05-03T08:29:22.053Z,79.27
2019-05-03T08:32:10.536Z,79.67
2019-05-03T08:35:04.810Z,79.61
2019-05-03T08:38:00.860Z,80.27
2019-05-03T08:40:36.362Z,78.15
2019-05-03T08:43:07.480Z,77.71
2019-05-03T08:45:38.465Z,78.83
2019-05-03T08:48:09.550Z,79.28
2019-05-03T08:50:40.537Z,78.89
2019-05-03T08:53:11.582Z,79.52
2019-05-03T08:55:44.828Z,79.36
2019-05-03T08:58:15.594Z,79.28
2019-05-03T09:00:47.724Z,79.70
2019-05-03T09:03:18.704Z,78.54
2019-05-03T09:05:49.846Z,79.61
2019-05-03T09:08:20.828Z,79.47
2019-05-03T09:11:05.505Z,79.37
2019-05-03T09:14:04.754Z,79.84
2019-05-03T09:16:35.793Z,79.24
2019-05-03T09:19:06.867Z,80.53
2019-05-03T09:21:37.883Z,80.61
2019-05-03T09:24:09.178Z,81.08
2019-05-03T09:26:40.191Z,82.99
2019-05-03T09:29:11.173Z,83.00
2019-05-03T09:31:44.564Z,81.64
2019-05-03T09:34:15.015Z,80.13
2019-05-03T09:36:46.039Z,81.85
2019-05-03T09:39:17.125Z,84.34
2019-05-03T09:41:48.152Z,83.55
2019-05-03T09:44:19.165Z,83.01
2019-05-03T09:46:50.177Z,83.57
2019-05-03T09:49:21.167Z,83.84
2019-05-03T09:51:52.223Z,84.00
2019-05-03T09:54:28.378Z,84.67
2019-05-03T09:57:02.448Z,85.85
2019-05-03T09:59:35.005Z,86.14
2019-05-03T10:02:06.464Z,86.68
2019-05-03T10:04:37.440Z,87.08
2019-05-03T10:07:08.435Z,86.70
2019-05-03T10:09:39.393Z,87.14
2019-05-03T10:12:16.201Z,85.33
2019-05-03T10:14:47.454Z,85.56
2019-05-03T10:17:52.242Z,83.24
2019-05-03T10:20:25.371Z,84.59
2019-05-03T10:22:59.299Z,83.64
2019-05-03T10:25:30.287Z,84.47
2019-05-03T10:28:01.447Z,84.99
2019-05-03T10:30:32.505Z,84.66
2019-05-03T10:33:11.745Z,83.71
2019-05-03T10:35:44.985Z,82.90
2019-05-03T10:38:15.510Z,82.70
2019-05-03T10:40:46.537Z,82.56
2019-05-03T10:43:17.593Z,82.81
2019-05-03T10:45:48.759Z,82.33
2019-05-03T10:48:19.854Z,81.00
2019-05-03T10:50:51.143Z,82.59
2019-05-03T10:53:34.556Z,82.03
2019-05-03T10:56:28.270Z,81.33
2019-05-03T10:59:01.684Z,83.56
2019-05-03T11:01:51.683Z,82.97
2019-05-03T11:04:22.783Z,81.44
2019-05-03T11:06:55.114Z,80.17
2019-05-03T11:09:26.225Z,80.69
2019-05-03T11:11:58.199Z,76.60
2019-05-03T11:14:29.235Z,78.25
2019-05-03T11:17:00.575Z,79.78
2019-05-03T11:19:31.728Z,79.08
2019-05-03T11:22:02.728Z,77.37
2019-05-03T11:24:34.939Z,78.90
2019-05-03T11:27:12.819Z,75.26
2019-05-03T11:29:45.086Z,77.46
2019-05-03T11:32:37.750Z,74.78
2019-05-03T11:35:15.032Z,76.07
2019-05-03T11:37:53.639Z,77.68
2019-05-03T11:40:25.149Z,74.54
2019-05-03T11:42:59.414Z,77.89
2019-05-03T11:45:30.726Z,76.16
2019-05-03T11:48:01.699Z,76.65
2019-05-03T11:50:34.634Z,75.96
2019-05-03T11:53:05.466Z,72.63
2019-05-03T11:55:36.576Z,73.28
2019-05-03T11:58:21.821Z,77.34
2019-05-03T12:01:20.074Z,74.30
2019-05-03T12:03:55.434Z,77.40
2019-05-03T12:06:26.211Z,75.09
2019-05-03T12:08:57.220Z,74.89
2019-05-03T12:11:30.128Z,74.71
2019-05-03T12:14:15.485Z,73.68
2019-05-03T12:17:13.084Z,74.81
2019-05-03T12:19:30.785Z,74.23
2019-05-03T12:22:00.271Z,73.75
2019-05-03T12:24:33.843Z,75.76
2019-05-03T12:27:05.706Z,75.27
2019-05-03T12:29:36.688Z,75.21
2019-05-03T12:32:07.680Z,74.42
2019-05-03T12:34:38.660Z,73.50
2019-05-03T12:37:09.723Z,74.58
2019-05-03T12:39:40.718Z,74.22
2019-05-03T12:42:11.967Z,73.13
2019-05-03T12:44:43.113Z,72.15
2019-05-03T12:47:14.592Z,73.85
2019-05-03T12:49:46.037Z,73.21
2019-05-03T12:52:17.827Z,74.29
2019-05-03T12:54:49.184Z,74.15
2019-05-03T12:57:20.282Z,75.45
2019-05-03T13:00:10.212Z,76.47
2019-05-03T13:02:51.324Z,76.96
2019-05-03T13:05:22.358Z,78.13
2019-05-03T13:08:11.085Z,77.45
2019-05-03T13:10:42.066Z,76.85
2019-05-03T13:13:14.639Z,76.31
2019-05-03T13:15:45.923Z,75.25
2019-05-03T13:18:17.018Z,78.00
2019-05-03T13:20:48.023Z,78.26
2019-05-03T13:23:19.025Z,76.78
2019-05-03T13:25:50.052Z,78.90
2019-05-03T13:28:21.167Z,77.13
2019-05-03T13:30:52.212Z,77.45
2019-05-03T13:33:23.286Z,78.62
2019-05-03T13:35:55.170Z,78.45
2019-05-03T13:38:26.320Z,79.41
2019-05-03T13:40:57.710Z,78.52
2019-05-03T13:43:28.839Z,76.74
2019-05-03T13:45:59.873Z,77.77
2019-05-03T13:48:42.695Z,78.25
2019-05-03T13:51:05.318Z,77.70
2019-05-03T13:53:36.649Z,76.69
2019-05-03T13:56:07.703Z,76.95
2019-05-03T13:58:38.753Z,75.63
2019-05-03T14:01:09.806Z,76.86
2019-05-03T14:03:40.880Z,75.62
2019-05-03T14:06:11.961Z,76.85
2019-05-03T14:08:45.287Z,78.23
2019-05-03T14:11:15.728Z,79.09
2019-05-03T14:13:46.885Z,78.80
2019-05-03T14:16:17.970Z,78.39
2019-05-03T14:18:50.723Z,77.66
2019-05-03T14:21:26.028Z,78.77
2019-05-03T14:24:13.024Z,77.77
2019-05-03T14:26:44.770Z,80.05
2019-05-03T14:29:16.123Z,79.81
2019-05-03T14:31:47.131Z,78.46
2019-05-03T14:34:18.140Z,77.46
2019-05-03T14:36:49.156Z,78.18
2019-05-03T14:39:20.148Z,78.11
2019-05-03T14:41:51.234Z,80.10
2019-05-03T14:44:22.350Z,82.68
2019-05-03T14:46:58.702Z,82.34
2019-05-03T14:49:26.153Z,82.70
2019-05-03T14:51:57.226Z,81.65
2019-05-03T14:54:30.436Z,82.33
2019-05-03T14:57:17.231Z,81.03
2019-05-03T15:00:16.847Z,82.39
2019-05-03T15:02:57.957Z,80.91
2019-05-03T15:05:28.655Z,81.32
2019-05-03T15:07:59.634Z,80.91
2019-05-03T15:10:30.721Z,83.68
2019-05-03T15:13:01.852Z,82.37
2019-05-03T15:15:34.701Z,81.91
2019-05-03T15:18:06.045Z,81.22
2019-05-03T15:20:37.389Z,81.29
2019-05-03T15:23:08.396Z,79.97
2019-05-03T15:25:39.449Z,80.20
2019-05-03T15:28:10.436Z,79.75
2019-05-03T15:30:41.509Z,80.66
2019-05-03T15:33:12.630Z,80.26
2019-05-03T15:35:46.451Z,79.21
2019-05-03T15:38:16.322Z,80.61
2019-05-03T15:40:47.324Z,79.96
2019-05-03T15:43:30.036Z,79.88
2019-05-03T15:46:14.600Z,78.13
2019-05-03T15:48:49.412Z,79.71
2019-05-03T15:51:20.414Z,79.21
2019-05-03T15:53:51.389Z,79.13
2019-05-03T15:56:22.377Z,78.39
2019-05-03T15:58:55.118Z,77.72
2019-05-03T16:01:26.127Z,79.21
2019-05-03T16:03:57.247Z,78.14
2019-05-03T16:06:28.244Z,79.51
2019-05-03T16:08:59.343Z,79.12
2019-05-03T16:11:30.417Z,78.36
2019-05-03T16:14:01.606Z,78.52
2019-05-03T16:16:32.618Z,78.22
2019-05-03T16:19:05.287Z,78.51
2019-05-03T16:21:36.745Z,78.68
2019-05-03T16:24:08.377Z,79.39
2019-05-03T16:26:58.389Z,79.07
2019-05-03T16:29:29.374Z,79.09
2019-05-03T16:32:00.406Z,79.32
2019-05-03T16:34:31.411Z,79.33
2019-05-03T16:37:04.280Z,79.00
2019-05-03T16:39:35.460Z,78.99
2019-05-03T16:42:08.314Z,77.54
2019-05-03T16:44:39.307Z,78.33
2019-05-03T16:47:10.558Z,78.94
2019-05-03T16:49:41.542Z,79.68
2019-05-03T16:52:14.757Z,79.36
2019-05-03T16:54:45.455Z,78.03
2019-05-03T16:57:17.549Z,79.14
2019-05-03T16:59:48.674Z,79.36
2019-05-03T17:02:19.723Z,79.49
2019-05-03T17:05:04.803Z,79.12
2019-05-03T17:07:57.284Z,80.34
2019-05-03T17:10:35.538Z,78.66
2019-05-03T17:13:06.741Z,79.25
2019-05-03T17:15:37.811Z,79.11
2019-05-03T17:18:08.859Z,80.55
2019-05-03T17:20:40.133Z,81.16
2019-05-03T17:23:11.521Z,79.52
2019-05-03T17:25:44.439Z,79.54
2019-05-03T17:28:16.820Z,79.71
2019-05-03T17:30:47.869Z,80.46
2019-05-03T17:33:18.890Z,79.68
2019-05-03T17:35:50.742Z,79.88
2019-05-03T17:38:21.784Z,79.76
2019-05-03T17:41:11.680Z,79.77
2019-05-03T17:44:07.280Z,80.56
2019-05-03T17:46:38.268Z,81.48
2019-05-03T17:49:09.253Z,81.02
2019-05-03T17:52:14.327Z,80.78
2019-05-03T17:55:04.990Z,80.01
2019-05-03T17:57:44.997Z,79.83
2019-05-03T18:00:34.983Z,80.81
2019-05-03T18:03:06.829Z,80.98
2019-05-03T18:05:44.906Z,80.87
2019-05-03T18:08:35.549Z,81.38
2019-05-03T18:11:09.467Z,79.85
2019-05-03T18:13:40.601Z,79.39
2019-05-03T18:16:11.635Z,78.92
2019-05-03T18:18:42.683Z,79.59
2019-05-03T18:21:15.162Z,78.47
2019-05-03T18:23:46.430Z,79.48
2019-05-03T18:26:17.452Z,78.12
2019-05-03T18:28:48.438Z,80.29
2019-05-03T18:31:19.601Z,81.10
2019-05-03T18:33:50.657Z,80.32
2019-05-03T18:36:21.685Z,80.44
2019-05-03T18:38:52.772Z,79.65
2019-05-03T18:41:25.412Z,81.94
2019-05-03T18:44:16.134Z,84.24
2019-05-03T18:46:52.811Z,85.17
2019-05-03T18:49:24.810Z,83.51
2019-05-03T18:51:56.221Z,82.53
2019-05-03T18:54:27.234Z,81.92
2019-05-03T18:56:58.502Z,81.19
2019-05-03T18:59:29.540Z,81.20
2019-05-03T19:02:00.743Z,81.96
2019-05-03T19:04:49.707Z,80.70
2019-05-03T19:07:34.731Z,80.93
2019-05-03T19:10:21.674Z,81.41
2019-05-03T19:12:59.818Z,81.65
2019-05-03T19:15:34.618Z,81.51
2019-05-03T19:18:09.762Z,80.29
2019-05-03T19:20:40.760Z,81.82
2019-05-03T19:23:11.845Z,81.15
2019-05-03T19:25:49.114Z,80.96
2019-05-03T19:28:16.707Z,83.11
2019-05-03T19:30:48.293Z,81.75
2019-05-03T19:33:19.310Z,83.21
2019-05-03T19:35:50.435Z,82.49
2019-05-03T19:38:21.451Z,81.92
2019-05-03T19:40:54.731Z,82.79
2019-05-03T19:43:27.148Z,82.33
2019-05-03T19:45:58.417Z,81.96
2019-05-03T19:48:29.493Z,81.10
2019-05-03T19:51:00.471Z,81.33
2019-05-03T19:53:50.490Z,81.20
2019-05-03T19:56:22.640Z,80.86
2019-05-03T19:58:57.896Z,80.53
2019-05-03T20:01:45.034Z,80.62
2019-05-03T20:04:37.921Z,80.08
2019-05-03T20:07:36.917Z,79.35
2019-05-03T20:10:08.857Z,79.33
2019-05-03T20:12:39.917Z,80.11
2019-05-03T20:15:11.131Z,80.20
2019-05-03T20:17:54.628Z,79.87
2019-05-03T20:20:15.508Z,80.34
2019-05-03T20:22:47.688Z,79.97
2019-05-03T20:25:18.933Z,80.18
2019-05-03T20:27:49.943Z,81.48
2019-05-03T20:30:20.922Z,80.07
2019-05-03T20:32:51.939Z,80.39
2019-05-03T20:35:24.968Z,80.14
2019-05-03T20:37:55.749Z,79.92
2019-05-03T20:40:26.869Z,79.54
2019-05-03T20:43:25.840Z,79.57
2019-05-03T20:46:18.878Z,79.95
2019-05-03T20:48:52.262Z,79.19
2019-05-03T20:51:25.067Z,79.85
2019-05-03T20:53:56.102Z,79.46
2019-05-03T20:56:27.079Z,79.56
2019-05-03T20:58:58.103Z,79.55
2019-05-03T21:01:29.075Z,79.32
2019-05-03T21:04:01.250Z,79.03
2019-05-03T21:06:35.711Z,79.35
2019-05-03T21:09:07.143Z,78.95
2019-05-03T21:11:39.747Z,78.52
2019-05-03T21:14:10.871Z,79.69
2019-05-03T21:17:18.911Z,79.07
2019-05-03T21:20:07.621Z,79.52
2019-05-03T21:22:44.242Z,79.82
2019-05-03T21:25:29.546Z,80.00
2019-05-03T21:28:00.605Z,81.14
2019-05-03T21:30:32.919Z,82.86
2019-05-03T21:33:05.395Z,82.39
2019-05-03T21:35:41.500Z,82.86
2019-05-03T21:38:09.203Z,83.18
2019-05-03T21:40:40.174Z,84.22
2019-05-03T21:43:11.157Z,84.59
2019-05-03T21:45:47.687Z,84.85
2019-05-03T21:48:22.557Z,83.19
2019-05-03T21:50:53.544Z,84.85
2019-05-03T21:53:25.105Z,83.69
2019-05-03T21:55:56.204Z,83.63
2019-05-03T21:58:28.241Z,82.37
2019-05-03T22:01:05.074Z,81.52
2019-05-03T22:03:38.024Z,81.25
2019-05-03T22:06:09.011Z,80.76
2019-05-03T22:08:40.109Z,80.14
2019-05-03T22:11:11.217Z,79.89
2019-05-03T22:13:43.067Z,80.93
2019-05-03T22:16:18.125Z,80.29
2019-05-03T22:18:49.180Z,80.04
2019-05-03T22:21:29.076Z,80.14
2019-05-03T22:24:17.695Z,79.78
2019-05-03T22:26:51.944Z,80.00
2019-05-03T22:29:25.257Z,79.76
2019-05-03T22:31:56.047Z,80.47
2019-05-03T22:34:27.010Z,80.59
2019-05-03T22:36:58.092Z,79.88
2019-05-03T22:39:29.095Z,79.62
2019-05-03T22:42:00.169Z,79.68
2019-05-03T22:44:31.141Z,79.29
2019-05-03T22:47:02.154Z,78.76
2019-05-03T22:49:34.586Z,79.49
2019-05-03T22:52:05.968Z,81.58
2019-05-03T22:54:37.001Z,82.98
2019-05-03T22:57:08.016Z,83.25
2019-05-03T22:59:39.044Z,83.62
2019-05-03T23:02:10.023Z,83.85
2019-05-03T23:04:41.000Z,83.14
2019-05-03T23:07:12.024Z,82.75
2019-05-03T23:09:44.604Z,83.19
2019-05-03T23:12:15.789Z,82.80
2019-05-03T23:14:47.824Z,82.12
2019-05-03T23:17:18.841Z,81.75
2019-05-03T23:19:52.976Z,81.70
2019-05-03T23:22:27.341Z,81.20
2019-05-03T23:24:58.381Z,81.60
2019-05-03T23:27:29.360Z,81.09
2019-05-03T23:30:00.348Z,81.34
2019-05-03T23:32:31.329Z,80.57
2019-05-03T23:35:02.383Z,81.02
2019-05-03T23:37:34.597Z,81.45
2019-05-03T23:40:07.234Z,80.49
2019-05-03T23:42:38.223Z,81.26
2019-05-03T23:45:09.342Z,80.70
2019-05-03T23:47:45.047Z,80.98
2019-05-03T23:50:20.746Z,81.49
2019-05-03T23:52:51.723Z,82.08
2019-05-03T23:55:37.591Z,81.18
2019-05-03T23:58:08.555Z,81.01
